Time;durP1;ratioP1;P1;durP2;ratioP2;P2;SDS_P1;SDS_P2;PMS_P1;PMS_P2;Temp;Humidity;BMP_temperature;BMP_pressure;BME280_temperature;BME280_humidity;BME280_pressure;Samples;Min_cycle;Max_cycle;Signal;HPM_P1;HPM_P2
2022/02/11 00:01:13;;;;;;;11.10;3.33;;;;;;;;;;5015324;28;20068;-68
2022/02/11 00:09:12;;;;;;;9.77;2.53;;;;;;;;;;5024044;28;20478;-69
2022/02/11 00:11:39;;;;;;;14.63;2.95;;;;;;;;;;5023978;28;20132;-69
2022/02/11 00:14:06;;;;;;;9.15;2.53;;;;;;;;;;5015821;28;20054;-69
2022/02/11 00:16:33;;;;;;;13.07;2.33;;;;;;;;;;5004011;28;20042;-69
2022/02/11 00:19:00;;;;;;;11.05;2.38;;;;;;;;;;5008660;28;20053;-69
2022/02/11 00:21:27;;;;;;;13.77;2.80;;;;;;;;;;5021745;28;20049;-69
2022/02/11 00:23:53;;;;;;;9.63;2.55;;;;;;;;;;5021198;28;20045;-69
2022/02/11 00:26:19;;;;;;;12.40;2.33;;;;;;;;;;5021928;28;20049;-69
2022/02/11 00:33:45;;;;;;;9.02;2.15;;;;;;;;;;5017210;28;20566;-69
2022/02/11 00:36:13;;;;;;;6.97;2.05;;;;;;;;;;5013749;28;20061;-69
2022/02/11 00:39:09;;;;;;;10.30;2.45;;;;;;;;;;5022225;28;20055;-69
2022/02/11 00:47:16;;;;;;;8.52;2.35;;;;;;;;;;5008997;28;20154;-69
2022/02/11 01:06:10;;;;;;;10.73;3.25;;;;;;;;;;5021814;28;20049;-69
2022/02/11 01:08:41;;;;;;;12.75;2.20;;;;;;;;;;5022735;28;20376;-69
2022/02/11 01:11:14;;;;;;;10.13;2.17;;;;;;;;;;5015343;28;20052;-69
2022/02/11 01:13:40;;;;;;;9.88;1.92;;;;;;;;;;4996741;28;20062;-69
2022/02/11 01:16:12;;;;;;;7.93;1.90;;;;;;;;;;4992336;28;20053;-68
2022/02/11 01:18:41;;;;;;;7.03;1.70;;;;;;;;;;5004389;28;20524;-68
2022/02/11 01:21:15;;;;;;;11.32;2.10;;;;;;;;;;5014097;28;20073;-69
2022/02/11 01:23:57;;;;;;;11.15;1.90;;;;;;;;;;5022167;28;20053;-69
2022/02/11 01:26:37;;;;;;;13.70;2.55;;;;;;;;;;5017483;28;20058;-68
2022/02/11 01:32:39;;;;;;;7.32;1.90;;;;;;;;;;5021762;28;20144;-69
2022/02/11 01:37:25;;;;;;;11.40;2.20;;;;;;;;;;5022225;28;20065;-68
2022/02/11 01:45:46;;;;;;;12.57;2.03;;;;;;;;;;5013457;28;20057;-68
2022/02/11 01:51:21;;;;;;;13.63;2.42;;;;;;;;;;5013152;28;20053;-68
2022/02/11 01:56:39;;;;;;;7.65;1.67;;;;;;;;;;4998646;28;20053;-69
2022/02/11 02:12:36;;;;;;;10.43;2.10;;;;;;;;;;5022110;28;20046;-68
2022/02/11 02:16:05;;;;;;;10.10;1.92;;;;;;;;;;5021205;28;20060;-69
2022/02/11 02:39:36;;;;;;;11.98;2.72;;;;;;;;;;5019744;28;20042;-69
2022/02/11 02:58:24;;;;;;;13.10;2.30;;;;;;;;;;5024510;28;20064;-70
2022/02/11 03:15:01;;;;;;;12.18;2.70;;;;;;;;;;5005208;28;20065;-70
2022/02/11 03:53:53;;;;;;;18.33;2.83;;;;;;;;;;5023055;28;20382;-70
2022/02/11 04:23:42;;;;;;;13.40;1.50;;;;;;;;;;5024030;28;20048;-70
2022/02/11 04:26:39;;;;;;;14.68;2.80;;;;;;;;;;5008998;28;20559;-70
2022/02/11 04:56:05;;;;;;;21.48;2.78;;;;;;;;;;5032038;28;20061;-70
2022/02/11 05:01:18;;;;;;;16.20;1.92;;;;;;;;;;5017474;28;20050;-70
2022/02/11 05:03:44;;;;;;;11.70;2.03;;;;;;;;;;5021677;28;20108;-70
2022/02/11 05:06:12;;;;;;;10.85;1.50;;;;;;;;;;5008565;28;20054;-70
2022/02/11 05:08:38;;;;;;;14.35;2.17;;;;;;;;;;5018405;28;20430;-71
2022/02/11 05:11:09;;;;;;;18.20;2.60;;;;;;;;;;5013057;28;20053;-70
2022/02/11 05:13:37;;;;;;;12.40;2.03;;;;;;;;;;5021404;28;20161;-69
2022/02/11 05:16:04;;;;;;;13.43;1.95;;;;;;;;;;5020873;28;20076;-70
2022/02/11 05:18:30;;;;;;;12.18;1.90;;;;;;;;;;5010653;28;20056;-70
2022/02/11 05:20:56;;;;;;;12.20;2.10;;;;;;;;;;5015464;28;20073;-70
2022/02/11 05:23:23;;;;;;;9.65;1.40;;;;;;;;;;5012471;28;20419;-70
2022/02/11 05:25:49;;;;;;;11.65;1.52;;;;;;;;;;5021128;28;20524;-70
2022/02/11 05:28:16;;;;;;;7.55;1.33;;;;;;;;;;5013373;28;20415;-70
2022/02/11 05:30:42;;;;;;;11.45;1.45;;;;;;;;;;5020470;28;20334;-70
2022/02/11 05:33:10;;;;;;;13.55;1.65;;;;;;;;;;5001168;28;20530;-70
2022/02/11 05:35:38;;;;;;;10.75;1.63;;;;;;;;;;5007825;28;20085;-69
2022/02/11 05:38:04;;;;;;;17.27;1.87;;;;;;;;;;5020954;28;20672;-69
2022/02/11 05:40:30;;;;;;;14.73;1.58;;;;;;;;;;5015655;28;20294;-69
2022/02/11 05:42:57;;;;;;;7.97;1.80;;;;;;;;;;5020930;28;20045;-69
2022/02/11 05:45:23;;;;;;;14.77;2.10;;;;;;;;;;5015719;28;20057;-69
2022/02/11 05:47:49;;;;;;;10.82;1.45;;;;;;;;;;5020934;28;20235;-69
2022/02/11 05:50:15;;;;;;;18.92;1.77;;;;;;;;;;5037642;28;20049;-69
2022/02/11 05:52:53;;;;;;;17.30;2.10;;;;;;;;;;5017474;28;20383;-69
2022/02/11 05:55:19;;;;;;;16.52;2.08;;;;;;;;;;5021257;28;20064;-69
2022/02/11 05:57:46;;;;;;;15.55;1.92;;;;;;;;;;5012785;28;20057;-69
2022/02/11 06:00:12;;;;;;;14.15;2.03;;;;;;;;;;5015780;28;20585;-69
2022/02/11 06:02:39;;;;;;;13.18;2.00;;;;;;;;;;4996627;28;20046;-69
2022/02/11 06:05:05;;;;;;;14.63;2.45;;;;;;;;;;5005872;28;20045;-69
2022/02/11 06:07:31;;;;;;;11.20;1.77;;;;;;;;;;5006344;28;20050;-69
2022/02/11 06:09:58;;;;;;;18.13;2.10;;;;;;;;;;4999052;28;20046;-69
2022/02/11 06:12:25;;;;;;;13.75;2.05;;;;;;;;;;5014186;28;20092;-69
2022/02/11 06:14:52;;;;;;;15.75;1.90;;;;;;;;;;5007894;28;20129;-70
2022/02/11 06:17:20;;;;;;;17.08;2.50;;;;;;;;;;5003284;28;20527;-69
2022/02/11 06:19:47;;;;;;;12.43;2.00;;;;;;;;;;5013578;28;20057;-69
2022/02/11 06:22:13;;;;;;;11.80;1.90;;;;;;;;;;5013126;28;20052;-69
2022/02/11 06:24:39;;;;;;;15.13;2.30;;;;;;;;;;5002943;28;20353;-69
2022/02/11 06:27:05;;;;;;;9.52;1.65;;;;;;;;;;5007233;28;20056;-69
2022/02/11 06:29:32;;;;;;;11.20;1.20;;;;;;;;;;5017684;28;20064;-69
2022/02/11 06:31:58;;;;;;;7.68;1.15;;;;;;;;;;5010431;28;20053;-69
2022/02/11 06:34:26;;;;;;;5.75;0.98;;;;;;;;;;5023107;28;20054;-69
2022/02/11 06:36:52;;;;;;;8.82;1.23;;;;;;;;;;5007618;28;20054;-69
2022/02/11 06:39:18;;;;;;;10.45;1.42;;;;;;;;;;5014064;28;20156;-69
2022/02/11 06:41:45;;;;;;;8.02;2.22;;;;;;;;;;5018343;28;20049;-69
2022/02/11 06:44:12;;;;;;;9.77;1.85;;;;;;;;;;5011242;28;20068;-69
2022/02/11 06:46:38;;;;;;;14.77;1.83;;;;;;;;;;5024858;28;20718;-69
2022/02/11 06:49:05;;;;;;;13.95;2.13;;;;;;;;;;5004479;28;20057;-71
2022/02/11 06:51:31;;;;;;;14.45;1.83;;;;;;;;;;5006495;28;20061;-69
2022/02/11 06:53:58;;;;;;;11.57;1.85;;;;;;;;;;4999223;28;20096;-69
2022/02/11 06:56:24;;;;;;;7.38;1.15;;;;;;;;;;4997168;28;20057;-69
2022/02/11 06:58:52;;;;;;;11.52;1.92;;;;;;;;;;5001402;28;20058;-69
2022/02/11 07:01:19;;;;;;;11.88;2.00;;;;;;;;;;5003868;28;20054;-69
2022/02/11 07:03:45;;;;;;;6.97;1.27;;;;;;;;;;5024861;28;20072;-69
2022/02/11 07:06:11;;;;;;;6.80;1.40;;;;;;;;;;5016657;28;20056;-69
2022/02/11 07:08:38;;;;;;;13.52;2.22;;;;;;;;;;5021117;28;20054;-69
2022/02/11 07:11:04;;;;;;;13.77;1.52;;;;;;;;;;5013859;28;20422;-69
2022/02/11 07:13:31;;;;;;;11.73;1.95;;;;;;;;;;5022455;28;20064;-69
2022/02/11 07:15:57;;;;;;;15.43;1.83;;;;;;;;;;5024436;28;20057;-69
2022/02/11 07:18:23;;;;;;;14.80;2.20;;;;;;;;;;5017748;28;20386;-69
2022/02/11 07:20:50;;;;;;;19.08;2.45;;;;;;;;;;5022118;28;20057;-69
2022/02/11 07:23:16;;;;;;;16.67;1.60;;;;;;;;;;5010979;28;20053;-69
2022/02/11 07:25:43;;;;;;;10.00;1.48;;;;;;;;;;5018931;28;20057;-69
2022/02/11 07:28:10;;;;;;;15.13;2.50;;;;;;;;;;5023731;28;20056;-69
2022/02/11 07:30:36;;;;;;;11.30;1.92;;;;;;;;;;5015678;28;20341;-69
2022/02/11 07:33:02;;;;;;;15.90;2.42;;;;;;;;;;5024042;28;20049;-69
2022/02/11 07:35:29;;;;;;;10.00;1.85;;;;;;;;;;5016065;28;20049;-69
2022/02/11 07:37:55;;;;;;;14.15;2.10;;;;;;;;;;5015915;28;20049;-69
2022/02/11 07:40:22;;;;;;;15.25;2.30;;;;;;;;;;5014860;28;20033;-69
2022/02/11 07:42:51;;;;;;;14.57;1.95;;;;;;;;;;5023949;28;20045;-69
2022/02/11 07:45:20;;;;;;;17.10;2.05;;;;;;;;;;5024367;28;20182;-69
2022/02/11 07:47:47;;;;;;;13.07;2.03;;;;;;;;;;5020293;28;20821;-69
2022/02/11 07:50:14;;;;;;;15.57;2.42;;;;;;;;;;5039147;28;20041;-69
2022/02/11 07:52:40;;;;;;;16.48;2.05;;;;;;;;;;5017462;28;20059;-69
2022/02/11 07:55:06;;;;;;;17.45;2.35;;;;;;;;;;5023255;28;20897;-69
2022/02/11 07:57:33;;;;;;;11.95;2.05;;;;;;;;;;5014826;28;20049;-69
2022/02/11 08:00:04;;;;;;;22.15;3.15;;;;;;;;;;5019124;28;20053;-69
2022/02/11 08:02:32;;;;;;;15.65;2.38;;;;;;;;;;5024573;28;20900;-69
2022/02/11 08:04:58;;;;;;;11.63;1.70;;;;;;;;;;4992919;28;20052;-69
2022/02/11 08:07:24;;;;;;;10.60;1.98;;;;;;;;;;5018434;28;20422;-69
2022/02/11 08:09:50;;;;;;;13.50;2.13;;;;;;;;;;5014593;28;20054;-69
2022/02/11 08:12:17;;;;;;;14.07;1.85;;;;;;;;;;5022567;28;20059;-69
2022/02/11 08:14:44;;;;;;;17.45;2.83;;;;;;;;;;5012902;28;20057;-69
2022/02/11 08:17:10;;;;;;;14.38;1.77;;;;;;;;;;5023221;28;20332;-69
2022/02/11 08:19:36;;;;;;;18.77;2.55;;;;;;;;;;5016411;28;20049;-69
2022/02/11 08:22:02;;;;;;;15.25;2.50;;;;;;;;;;5013215;28;20080;-69
2022/02/11 08:24:29;;;;;;;9.60;1.95;;;;;;;;;;5022711;28;20045;-69
2022/02/11 08:26:56;;;;;;;14.32;2.38;;;;;;;;;;5008895;28;20140;-69
2022/02/11 08:29:25;;;;;;;14.23;2.17;;;;;;;;;;5020983;28;20517;-69
2022/02/11 08:31:55;;;;;;;16.05;2.75;;;;;;;;;;5009763;28;20057;-69
2022/02/11 08:34:21;;;;;;;21.60;2.58;;;;;;;;;;5006527;28;20045;-69
2022/02/11 08:36:48;;;;;;;17.17;2.47;;;;;;;;;;5022302;28;20049;-69
2022/02/11 08:39:14;;;;;;;18.08;3.05;;;;;;;;;;5015080;28;20379;-69
2022/02/11 08:41:41;;;;;;;18.52;2.72;;;;;;;;;;5021844;28;20455;-69
2022/02/11 08:44:07;;;;;;;14.02;2.38;;;;;;;;;;5014212;28;20430;-69
2022/02/11 08:46:34;;;;;;;15.50;1.98;;;;;;;;;;5017520;28;20314;-69
2022/02/11 08:49:00;;;;;;;17.23;2.47;;;;;;;;;;5009573;28;20053;-69
2022/02/11 08:51:29;;;;;;;20.52;3.30;;;;;;;;;;5019486;28;20053;-69
2022/02/11 08:53:56;;;;;;;24.15;2.80;;;;;;;;;;5019780;28;20049;-69
2022/02/11 08:56:22;;;;;;;16.88;2.33;;;;;;;;;;5013844;28;20049;-69
2022/02/11 08:58:49;;;;;;;13.55;2.45;;;;;;;;;;5021889;28;20053;-69
2022/02/11 09:01:15;;;;;;;19.13;2.28;;;;;;;;;;5009529;28;20068;-69
2022/02/11 09:03:42;;;;;;;25.05;3.55;;;;;;;;;;5017147;28;20084;-69
2022/02/11 09:06:08;;;;;;;20.83;2.90;;;;;;;;;;5020933;28;20316;-69
2022/02/11 09:08:35;;;;;;;18.08;2.22;;;;;;;;;;5018240;28;20060;-70
2022/02/11 09:11:03;;;;;;;11.68;2.47;;;;;;;;;;5022124;28;20136;-70
2022/02/11 09:13:29;;;;;;;15.85;3.53;;;;;;;;;;5012356;28;20053;-70
2022/02/11 09:15:56;;;;;;;20.88;2.72;;;;;;;;;;5014742;28;20411;-70
2022/02/11 09:18:22;;;;;;;22.63;4.25;;;;;;;;;;5012649;28;20465;-70
2022/02/11 09:20:49;;;;;;;16.23;2.47;;;;;;;;;;5022049;28;20057;-69
2022/02/11 09:23:17;;;;;;;25.40;2.95;;;;;;;;;;5027561;28;20056;-69
2022/02/11 09:25:43;;;;;;;16.88;2.50;;;;;;;;;;5013064;28;20712;-70
2022/02/11 09:28:10;;;;;;;24.23;3.25;;;;;;;;;;5018243;28;20264;-70
2022/02/11 09:30:40;;;;;;;22.95;2.90;;;;;;;;;;5009107;28;20045;-69
2022/02/11 09:33:06;;;;;;;19.80;3.20;;;;;;;;;;5022273;28;20049;-69
2022/02/11 09:35:32;;;;;;;17.30;2.60;;;;;;;;;;5015901;28;20490;-69
2022/02/11 09:37:59;;;;;;;16.13;2.67;;;;;;;;;;5021946;28;20056;-70
2022/02/11 09:40:25;;;;;;;24.90;3.00;;;;;;;;;;5021872;28;20060;-70
2022/02/11 09:42:53;;;;;;;20.95;2.85;;;;;;;;;;5005304;28;20583;-70
2022/02/11 09:45:20;;;;;;;18.38;2.05;;;;;;;;;;5004320;28;20056;-69
2022/02/11 09:47:47;;;;;;;17.98;4.30;;;;;;;;;;5009908;28;20053;-70
2022/02/11 09:50:13;;;;;;;15.80;2.35;;;;;;;;;;5014968;28;20455;-70
2022/02/11 09:52:39;;;;;;;20.58;2.75;;;;;;;;;;5014249;28;20425;-70
2022/02/11 09:57:51;;;;;;;19.38;4.00;;;;;;;;;;5015011;28;20053;-70
2022/02/11 10:00:18;;;;;;;16.25;2.67;;;;;;;;;;5008994;28;20218;-70
2022/02/11 10:02:51;;;;;;;9.57;1.85;;;;;;;;;;5014538;28;20053;-69
2022/02/11 10:05:43;;;;;;;12.73;1.45;;;;;;;;;;4999777;28;20033;-69
2022/02/11 10:08:09;;;;;;;9.98;2.03;;;;;;;;;;5014261;28;20049;-70
2022/02/11 10:10:39;;;;;;;12.95;1.55;;;;;;;;;;5007183;28;20061;-70
2022/02/11 10:13:13;;;;;;;9.30;1.60;;;;;;;;;;5019852;28;20400;-72
2022/02/11 10:15:43;;;;;;;7.55;1.45;;;;;;;;;;5006388;28;20049;-70
2022/02/11 10:18:13;;;;;;;13.07;1.73;;;;;;;;;;5021256;28;20053;-70
2022/02/11 10:20:47;;;;;;;10.38;1.45;;;;;;;;;;5014869;28;20037;-70
2022/02/11 10:23:21;;;;;;;13.68;1.42;;;;;;;;;;5017105;28;20053;-70
2022/02/11 10:25:54;;;;;;;17.33;2.50;;;;;;;;;;5015470;28;20510;-70
2022/02/11 10:28:23;;;;;;;15.20;1.90;;;;;;;;;;5006613;28;20048;-70
2022/02/11 10:30:49;;;;;;;;;;;;;;;;;;5023412;28;20135;-70
2022/02/11 10:33:16;;;;;;;14.27;1.92;;;;;;;;;;5016684;28;19932;-70
2022/02/11 10:35:42;;;;;;;14.63;1.73;;;;;;;;;;5025162;28;20056;-70
2022/02/11 10:38:09;;;;;;;13.75;1.80;;;;;;;;;;5009132;28;20853;-70
2022/02/11 10:40:37;;;;;;;10.60;2.08;;;;;;;;;;5011933;28;20052;-70
2022/02/11 10:43:04;;;;;;;8.90;1.88;;;;;;;;;;5022680;28;20050;-70
2022/02/11 10:45:37;;;;;;;9.02;1.33;;;;;;;;;;4999105;28;20060;-70
2022/02/11 10:48:07;;;;;;;20.17;2.30;;;;;;;;;;5012914;28;20057;-70
2022/02/11 10:50:34;;;;;;;14.48;2.03;;;;;;;;;;5014029;28;20548;-70
2022/02/11 10:53:05;;;;;;;10.07;1.85;;;;;;;;;;5020438;28;20490;-70
2022/02/11 10:55:31;;;;;;;13.95;1.67;;;;;;;;;;5016272;28;20049;-70
2022/02/11 10:57:59;;;;;;;16.23;1.75;;;;;;;;;;5026211;28;20045;-70
2022/02/11 11:00:27;;;;;;;11.25;1.40;;;;;;;;;;5017152;28;20052;-70
2022/02/11 11:02:53;;;;;;;12.23;1.30;;;;;;;;;;5017226;28;20132;-70
2022/02/11 11:05:21;;;;;;;9.25;2.30;;;;;;;;;;5017222;28;20582;-70
2022/02/11 11:07:47;;;;;;;11.07;1.55;;;;;;;;;;5011572;28;20060;-70
2022/02/11 11:10:16;;;;;;;16.70;2.08;;;;;;;;;;5024602;28;20474;-70
2022/02/11 11:12:48;;;;;;;10.57;1.90;;;;;;;;;;5010761;28;20140;-69
2022/02/11 11:15:17;;;;;;;12.23;1.70;;;;;;;;;;5021936;28;20053;-70
2022/02/11 11:17:44;;;;;;;19.73;2.80;;;;;;;;;;5020034;28;20057;-70
2022/02/11 11:20:10;;;;;;;13.45;2.05;;;;;;;;;;5013906;28;20056;-69
2022/02/11 11:22:38;;;;;;;10.95;1.75;;;;;;;;;;5025973;28;20049;-70
2022/02/11 11:25:05;;;;;;;14.45;1.92;;;;;;;;;;5018257;28;20147;-70
2022/02/11 11:27:50;;;;;;;8.25;1.25;;;;;;;;;;5025370;28;20052;-69
2022/02/11 11:30:30;;;;;;;16.13;1.83;;;;;;;;;;5013652;28;20053;-70
2022/02/11 11:33:08;;;;;;;6.65;1.17;;;;;;;;;;5015456;28;20136;-69
2022/02/11 11:35:36;;;;;;;12.07;1.50;;;;;;;;;;5016697;28;20884;-70
2022/02/11 11:38:11;;;;;;;15.60;2.25;;;;;;;;;;5017125;28;20060;-70
2022/02/11 11:40:38;;;;;;;7.57;1.25;;;;;;;;;;5005691;28;20095;-70
2022/02/11 11:43:12;;;;;;;16.08;1.83;;;;;;;;;;5011113;28;20053;-69
2022/02/11 11:45:42;;;;;;;11.60;1.40;;;;;;;;;;5011160;28;20104;-69
2022/02/11 11:48:15;;;;;;;10.63;1.85;;;;;;;;;;5003144;28;20057;-69
2022/02/11 11:50:42;;;;;;;10.45;1.45;;;;;;;;;;5016944;28;20129;-69
2022/02/11 11:53:25;;;;;;;8.63;1.55;;;;;;;;;;5016048;28;20458;-69
2022/02/11 11:55:52;;;;;;;11.23;1.55;;;;;;;;;;5004760;28;20447;-68
2022/02/11 11:58:47;;;;;;;12.18;1.30;;;;;;;;;;5012174;28;20049;-67
2022/02/11 12:01:17;;;;;;;8.73;1.50;;;;;;;;;;4997831;28;20065;-68
2022/02/11 12:04:02;;;;;;;8.52;1.02;;;;;;;;;;5017257;28;20529;-68
2022/02/11 12:06:31;;;;;;;8.60;1.98;;;;;;;;;;5021678;28;20053;-68
2022/02/11 12:08:57;;;;;;;;;;;;;;;;;;5017497;28;20305;-68
2022/02/11 12:11:24;;;;;;;8.50;1.33;;;;;;;;;;5013054;28;19925;-68
2022/02/11 12:13:51;;;;;;;9.05;1.25;;;;;;;;;;5014014;28;20053;-69
2022/02/11 12:16:17;;;;;;;11.02;1.73;;;;;;;;;;5010281;28;20045;-69
2022/02/11 12:18:46;;;;;;;12.57;1.65;;;;;;;;;;5022632;28;20057;-69
2022/02/11 12:21:13;;;;;;;9.52;1.75;;;;;;;;;;5012513;28;20053;-69
2022/02/11 12:29:15;;;;;;;8.55;1.50;;;;;;;;;;5014610;28;20049;-69
2022/02/11 12:31:49;;;;;;;10.93;1.27;;;;;;;;;;5030480;28;20561;-69
2022/02/11 12:34:16;;;;;;;10.80;1.52;;;;;;;;;;5022832;28;20366;-69
2022/02/11 12:36:43;;;;;;;8.85;1.20;;;;;;;;;;5022658;28;20084;-69
2022/02/11 12:39:16;;;;;;;11.60;2.20;;;;;;;;;;5013769;28;20060;-69
2022/02/11 12:41:44;;;;;;;7.05;1.20;;;;;;;;;;5016243;28;20053;-69
2022/02/11 12:44:10;;;;;;;8.00;1.10;;;;;;;;;;4995092;28;20060;-70
2022/02/11 12:46:37;;;;;;;10.63;1.35;;;;;;;;;;5021680;28;20046;-69
2022/02/11 12:49:04;;;;;;;7.00;1.80;;;;;;;;;;5035298;28;20501;-69
2022/02/11 12:51:31;;;;;;;6.95;1.58;;;;;;;;;;5011582;28;20517;-69
2022/02/11 12:54:01;;;;;;;7.20;1.45;;;;;;;;;;5017614;28;20056;-69
2022/02/11 12:56:34;;;;;;;11.38;2.08;;;;;;;;;;5012014;28;20474;-69
2022/02/11 12:59:04;;;;;;;8.05;1.45;;;;;;;;;;5020637;28;20045;-69
2022/02/11 13:01:31;;;;;;;5.32;0.85;;;;;;;;;;5014081;28;20446;-69
2022/02/11 13:03:57;;;;;;;4.88;0.90;;;;;;;;;;5020906;28;20053;-69
2022/02/11 13:06:24;;;;;;;8.70;1.05;;;;;;;;;;5017274;28;20074;-69
2022/02/11 13:09:00;;;;;;;5.45;1.00;;;;;;;;;;5003676;28;20060;-68
2022/02/11 13:11:27;;;;;;;8.88;1.25;;;;;;;;;;5022280;28;20057;-69
2022/02/11 13:14:06;;;;;;;7.90;1.13;;;;;;;;;;5013047;28;20051;-69
2022/02/11 13:16:34;;;;;;;10.00;1.10;;;;;;;;;;5022112;28;20057;-69
2022/02/11 13:19:10;;;;;;;9.10;1.30;;;;;;;;;;5007128;28;20045;-69
2022/02/11 13:21:37;;;;;;;11.13;1.42;;;;;;;;;;5010521;28;20415;-69
2022/02/11 13:24:04;;;;;;;7.38;1.35;;;;;;;;;;5001533;28;20101;-69
2022/02/11 13:26:34;;;;;;;6.30;1.33;;;;;;;;;;5015051;28;20042;-69
2022/02/11 13:29:00;;;;;;;11.52;1.58;;;;;;;;;;5003698;28;20052;-69
2022/02/11 13:31:27;;;;;;;8.68;1.30;;;;;;;;;;5002591;28;20446;-69
2022/02/11 13:34:03;;;;;;;9.55;1.65;;;;;;;;;;5017168;28;20132;-69
2022/02/11 13:36:32;;;;;;;5.35;0.95;;;;;;;;;;5010384;28;20053;-69
2022/02/11 13:39:00;;;;;;;8.00;1.17;;;;;;;;;;5022584;28;20041;-69
2022/02/11 13:41:27;;;;;;;;;;;;;;;;;;5019846;28;20049;-69
2022/02/11 13:43:58;;;;;;;7.93;1.20;;;;;;;;;;5019430;28;19925;-69
2022/02/11 13:46:54;;;;;;;7.90;1.40;;;;;;;;;;5021019;28;20157;-69
2022/02/11 13:49:21;;;;;;;5.65;1.00;;;;;;;;;;5023549;28;20049;-69
2022/02/11 13:54:56;;;;;;;11.02;1.70;;;;;;;;;;5014691;28;20064;-69
2022/02/11 13:57:23;;;;;;;9.18;1.42;;;;;;;;;;5023965;28;20049;-69
2022/02/11 13:59:49;;;;;;;6.18;1.10;;;;;;;;;;5013832;28;20069;-69
2022/02/11 14:02:18;;;;;;;11.77;1.85;;;;;;;;;;5015367;28;20466;-69
2022/02/11 14:04:46;;;;;;;8.75;1.00;;;;;;;;;;5009577;28;20083;-69
2022/02/11 14:07:12;;;;;;;6.60;1.67;;;;;;;;;;5023173;28;20048;-69
2022/02/11 14:09:40;;;;;;;9.32;1.52;;;;;;;;;;5020854;28;20048;-69
2022/02/11 14:12:29;;;;;;;8.18;1.27;;;;;;;;;;5013227;28;20046;-69
2022/02/11 14:14:59;;;;;;;6.40;1.15;;;;;;;;;;5013961;28;20054;-69
2022/02/11 14:17:29;;;;;;;6.95;1.30;;;;;;;;;;4998128;28;20056;-69
2022/02/11 14:19:55;;;;;;;12.63;1.38;;;;;;;;;;5005649;28;20054;-69
2022/02/11 14:22:22;;;;;;;7.78;1.42;;;;;;;;;;4996300;28;20542;-68
2022/02/11 14:24:48;;;;;;;7.88;1.55;;;;;;;;;;5003386;28;20129;-68
2022/02/11 14:27:15;;;;;;;11.00;1.17;;;;;;;;;;5004235;28;20046;-68
2022/02/11 14:29:42;;;;;;;9.57;1.15;;;;;;;;;;5013473;28;20056;-69
2022/02/11 14:32:08;;;;;;;6.18;1.05;;;;;;;;;;5019205;28;20499;-69
2022/02/11 14:34:34;;;;;;;7.50;1.30;;;;;;;;;;5013158;28;20053;-69
2022/02/11 14:37:01;;;;;;;7.20;1.30;;;;;;;;;;5021599;28;20076;-69
2022/02/11 14:39:29;;;;;;;10.38;1.45;;;;;;;;;;5016013;28;20053;-69
2022/02/11 14:41:57;;;;;;;11.40;1.40;;;;;;;;;;5017921;28;20056;-68
2022/02/11 14:44:27;;;;;;;11.98;1.50;;;;;;;;;;5010281;28;20737;-69
2022/02/11 14:46:55;;;;;;;7.68;1.40;;;;;;;;;;5011834;28;20491;-69
2022/02/11 14:49:22;;;;;;;8.10;1.55;;;;;;;;;;5009853;28;21047;-69
2022/02/11 14:51:50;;;;;;;8.57;1.25;;;;;;;;;;4997625;28;20156;-69
2022/02/11 14:54:17;;;;;;;9.38;1.40;;;;;;;;;;5022316;28;20049;-69
2022/02/11 14:56:44;;;;;;;7.65;1.10;;;;;;;;;;5001136;28;20084;-69
2022/02/11 14:59:11;;;;;;;5.70;1.33;;;;;;;;;;5002997;28;20167;-69
2022/02/11 15:01:41;;;;;;;7.03;1.08;;;;;;;;;;5015689;28;20053;-68
2022/02/11 15:04:07;;;;;;;6.68;1.13;;;;;;;;;;5022978;28;20049;-68
2022/02/11 15:06:34;;;;;;;7.00;1.92;;;;;;;;;;5023550;28;20061;-69
2022/02/11 15:09:01;;;;;;;9.95;1.10;;;;;;;;;;5011125;28;20846;-69
2022/02/11 15:11:28;;;;;;;10.23;2.47;;;;;;;;;;5017650;28;20045;-68
2022/02/11 15:13:55;;;;;;;12.00;1.38;;;;;;;;;;5015409;28;20053;-69
2022/02/11 15:16:21;;;;;;;7.28;1.10;;;;;;;;;;5024915;28;20049;-69
2022/02/11 15:18:47;;;;;;;7.38;1.17;;;;;;;;;;5017382;28;20151;-69
2022/02/11 15:21:14;;;;;;;4.72;1.30;;;;;;;;;;5025105;28;20056;-69
2022/02/11 15:23:41;;;;;;;11.07;1.67;;;;;;;;;;5020113;28;20061;-69
2022/02/11 15:26:09;;;;;;;7.93;1.17;;;;;;;;;;5013279;28;20120;-69
2022/02/11 15:28:38;;;;;;;9.00;1.20;;;;;;;;;;5021468;28;20054;-69
2022/02/11 15:31:08;;;;;;;9.00;1.83;;;;;;;;;;5017078;28;20057;-69
2022/02/11 15:33:34;;;;;;;10.57;1.25;;;;;;;;;;5024560;28;20057;-69
2022/02/11 15:36:00;;;;;;;5.10;1.35;;;;;;;;;;5017022;28;20053;-69
2022/02/11 15:38:27;;;;;;;11.00;1.88;;;;;;;;;;5019014;28;20057;-69
2022/02/11 15:40:53;;;;;;;10.07;2.20;;;;;;;;;;5018801;28;20045;-69
2022/02/11 15:43:19;;;;;;;14.20;1.75;;;;;;;;;;5015008;28;20056;-69
2022/02/11 15:45:45;;;;;;;9.05;1.35;;;;;;;;;;5023526;28;20410;-69
2022/02/11 15:48:12;;;;;;;9.93;1.40;;;;;;;;;;5016571;28;20053;-69
2022/02/11 15:50:41;;;;;;;6.00;1.25;;;;;;;;;;5023258;28;20414;-69
2022/02/11 15:53:08;;;;;;;6.00;1.00;;;;;;;;;;5009820;28;20057;-69
2022/02/11 15:55:34;;;;;;;8.27;1.17;;;;;;;;;;5021267;28;20061;-69
2022/02/11 15:58:00;;;;;;;12.45;2.40;;;;;;;;;;5022440;28;20062;-69
2022/02/11 16:00:29;;;;;;;13.25;1.33;;;;;;;;;;5030817;28;20136;-69
2022/02/11 16:02:55;;;;;;;8.60;1.50;;;;;;;;;;5024350;28;20049;-69
2022/02/11 16:05:24;;;;;;;8.45;1.40;;;;;;;;;;5009290;28;20083;-69
2022/02/11 16:07:54;;;;;;;14.52;1.33;;;;;;;;;;5012286;28;20049;-69
2022/02/11 16:10:23;;;;;;;9.55;1.60;;;;;;;;;;5005049;28;20584;-69
2022/02/11 16:12:49;;;;;;;7.05;1.30;;;;;;;;;;5017471;28;20053;-68
2022/02/11 16:15:16;;;;;;;11.25;1.92;;;;;;;;;;5023896;28;20060;-69
2022/02/11 16:18:06;;;;;;;8.02;0.88;;;;;;;;;;5013391;28;20108;-68
2022/02/11 16:20:37;;;;;;;10.07;1.55;;;;;;;;;;5017426;28;20049;-69
2022/02/11 16:23:04;;;;;;;6.95;1.55;;;;;;;;;;5011937;28;20057;-70
2022/02/11 16:25:31;;;;;;;12.48;1.98;;;;;;;;;;5023363;28;20060;-69
2022/02/11 16:27:58;;;;;;;13.07;2.00;;;;;;;;;;5016599;28;20045;-69
2022/02/11 16:30:28;;;;;;;12.88;2.05;;;;;;;;;;5021379;28;20132;-69
2022/02/11 16:32:57;;;;;;;11.68;1.92;;;;;;;;;;5019313;28;20057;-68
2022/02/11 16:35:23;;;;;;;10.57;1.95;;;;;;;;;;5014084;28;20061;-70
2022/02/11 16:37:50;;;;;;;10.65;1.70;;;;;;;;;;5023417;28;20053;-70
2022/02/11 16:40:16;;;;;;;10.85;1.67;;;;;;;;;;5016006;28;20076;-70
2022/02/11 16:42:44;;;;;;;9.55;1.85;;;;;;;;;;5019245;28;20056;-69
2022/02/11 16:45:11;;;;;;;7.60;1.35;;;;;;;;;;5008707;28;20056;-70
2022/02/11 16:47:38;;;;;;;9.63;1.45;;;;;;;;;;5014270;28;20056;-70
2022/02/11 16:50:05;;;;;;;9.63;1.75;;;;;;;;;;5011923;28;20084;-70
2022/02/11 16:52:33;;;;;;;;;;;;;;;;;;5009265;28;20099;-70
2022/02/11 16:55:03;;;;;;;13.43;1.60;;;;;;;;;;5022939;28;20449;-70
2022/02/11 16:57:29;;;;;;;13.13;1.67;;;;;;;;;;5011820;28;20046;-70
2022/02/11 16:59:56;;;;;;;10.40;1.83;;;;;;;;;;5016306;28;20054;-70
2022/02/11 17:02:22;;;;;;;12.45;1.50;;;;;;;;;;5015784;28;20052;-71
2022/02/11 17:04:49;;;;;;;11.80;2.08;;;;;;;;;;5021776;28;20045;-70
2022/02/11 17:07:19;;;;;;;13.35;2.65;;;;;;;;;;5021058;28;20152;-70
2022/02/11 17:09:46;;;;;;;7.82;1.88;;;;;;;;;;5015419;28;20422;-70
2022/02/11 17:12:13;;;;;;;13.48;3.20;;;;;;;;;;5015368;28;20517;-70
2022/02/11 17:14:39;;;;;;;9.68;3.92;;;;;;;;;;5013277;28;20072;-70
2022/02/11 17:17:06;;;;;;;16.75;5.07;;;;;;;;;;5023212;28;20624;-70
2022/02/11 17:19:32;;;;;;;13.57;4.15;;;;;;;;;;5014315;28;20076;-69
2022/02/11 17:22:00;;;;;;;14.43;3.55;;;;;;;;;;5024951;28;20390;-69
2022/02/11 17:24:28;;;;;;;13.70;2.85;;;;;;;;;;5021329;28;20049;-70
2022/02/11 17:26:55;;;;;;;10.07;2.10;;;;;;;;;;5005269;28;20045;-70
2022/02/11 17:29:22;;;;;;;11.50;2.30;;;;;;;;;;5003933;28;20438;-70
2022/02/11 17:31:48;;;;;;;12.45;3.42;;;;;;;;;;5010746;28;20090;-70
2022/02/11 17:34:15;;;;;;;8.48;2.33;;;;;;;;;;5021145;28;20080;-70
2022/02/11 17:36:41;;;;;;;10.38;2.70;;;;;;;;;;5012943;28;21082;-70
2022/02/11 17:39:08;;;;;;;12.15;2.40;;;;;;;;;;5015684;28;20049;-70
2022/02/11 17:41:35;;;;;;;16.77;2.50;;;;;;;;;;5015888;28;20065;-70
2022/02/11 17:44:03;;;;;;;13.02;1.70;;;;;;;;;;4995096;28;20053;-70
2022/02/11 17:46:32;;;;;;;10.85;2.35;;;;;;;;;;5021700;28;20049;-70
2022/02/11 17:48:58;;;;;;;8.30;2.00;;;;;;;;;;5011245;28;20937;-70
2022/02/11 17:51:25;;;;;;;12.77;2.35;;;;;;;;;;5003728;28;20510;-70
2022/02/11 17:53:52;;;;;;;15.85;2.85;;;;;;;;;;5009717;28;20054;-70
2022/02/11 17:56:18;;;;;;;11.57;2.25;;;;;;;;;;5028280;28;20053;-70
2022/02/11 17:58:44;;;;;;;10.93;2.88;;;;;;;;;;5031466;28;20079;-70
2022/02/11 18:01:11;;;;;;;15.70;2.70;;;;;;;;;;5012741;28;20053;-70
2022/02/11 18:03:37;;;;;;;13.15;3.38;;;;;;;;;;5020369;28;20095;-70
2022/02/11 18:06:04;;;;;;;9.77;3.35;;;;;;;;;;5005144;28;20068;-70
2022/02/11 18:08:30;;;;;;;12.32;3.55;;;;;;;;;;5011081;28;20053;-70
2022/02/11 18:10:56;;;;;;;10.88;3.70;;;;;;;;;;5011839;28;20049;-69
2022/02/11 18:13:23;;;;;;;11.80;3.00;;;;;;;;;;5026849;28;20064;-70
2022/02/11 18:15:49;;;;;;;11.50;3.17;;;;;;;;;;5020883;28;20046;-70
2022/02/11 18:18:16;;;;;;;13.65;3.58;;;;;;;;;;5013987;28;20058;-69
2022/02/11 18:20:42;;;;;;;10.73;3.33;;;;;;;;;;5015349;28;20049;-69
2022/02/11 18:23:09;;;;;;;16.20;3.80;;;;;;;;;;5008103;28;20076;-70